createdAt,value
2018-07-08T00:01:23.282Z,62.90
2018-07-08T00:03:51.147Z,63.40
2018-07-08T00:06:19.154Z,63.70
2018-07-08T00:08:47.077Z,64.30
2018-07-08T00:11:15.013Z,64.30
2018-07-08T00:13:42.973Z,64.80
2018-07-08T00:16:10.915Z,66.30
2018-07-08T00:18:38.834Z,65.20
2018-07-08T00:21:07.072Z,66.50
2018-07-08T00:23:35.118Z,65.40
2018-07-08T00:26:03.244Z,66.50
2018-07-08T00:28:31.453Z,65.40
2018-07-08T00:30:59.465Z,66.20
2018-07-08T00:33:27.548Z,67.30
2018-07-08T00:35:55.576Z,67.40
2018-07-08T00:38:23.634Z,67.50
2018-07-08T00:40:51.646Z,67.10
2018-07-08T00:43:19.548Z,68.60
2018-07-08T00:45:47.553Z,69.40
2018-07-08T00:48:15.447Z,65.40
2018-07-08T00:50:43.352Z,66.30
2018-07-08T00:53:11.432Z,65.70
2018-07-08T00:55:39.524Z,66.20
2018-07-08T00:58:07.506Z,67.10
2018-07-08T01:00:37.472Z,66.80
2018-07-08T01:03:07.400Z,68.20
2018-07-08T01:05:35.821Z,70.10
2018-07-08T01:08:04.296Z,67.60
2018-07-08T01:10:32.334Z,67.60
2018-07-08T01:13:01.389Z,67.50
2018-07-08T01:15:29.778Z,69.00
2018-07-08T01:17:58.325Z,68.60
2018-07-08T01:20:26.500Z,69.50
2018-07-08T01:22:54.643Z,68.60
2018-07-08T01:25:34.249Z,68.50
2018-07-08T01:28:02.209Z,68.40
2018-07-08T01:30:30.420Z,69.30
2018-07-08T01:32:58.352Z,70.80
2018-07-08T01:35:26.316Z,69.30
2018-07-08T01:37:54.282Z,69.10
2018-07-08T01:40:22.187Z,69.70
2018-07-08T01:42:50.592Z,69.90
2018-07-08T01:47:46.194Z,70.50
2018-07-08T01:50:14.189Z,72.60
2018-07-08T01:52:42.153Z,70.30
2018-07-08T01:55:10.123Z,70.90
2018-07-08T01:57:37.982Z,74.00
2018-07-08T02:00:06.610Z,72.90
2018-07-08T02:02:34.594Z,69.70
2018-07-08T02:05:02.591Z,69.80
2018-07-08T02:07:30.756Z,70.10
2018-07-08T02:09:59.144Z,70.20
2018-07-08T02:12:27.449Z,70.50
2018-07-08T02:14:55.459Z,71.40
2018-07-08T02:17:23.497Z,71.10
2018-07-08T02:19:51.460Z,70.40
2018-07-08T02:22:19.471Z,71.40
2018-07-08T02:24:47.493Z,71.60
2018-07-08T02:27:15.592Z,73.20
2018-07-08T02:29:43.575Z,71.70
2018-07-08T02:34:39.314Z,71.70
2018-07-08T02:37:07.368Z,71.50
2018-07-08T02:39:35.596Z,75.00
2018-07-08T02:42:03.852Z,71.70
2018-07-08T02:44:32.082Z,75.30
2018-07-08T02:47:00.024Z,73.20
2018-07-08T02:49:28.287Z,71.80
2018-07-08T02:51:56.167Z,72.50
2018-07-08T02:54:24.054Z,72.00
2018-07-08T02:56:52.209Z,72.30
2018-07-08T02:59:20.187Z,72.50
2018-07-08T03:01:48.009Z,72.40
2018-07-08T03:04:16.081Z,72.70
2018-07-08T03:06:44.100Z,72.60
2018-07-08T03:09:12.037Z,72.80
2018-07-08T03:11:40.173Z,72.50
2018-07-08T03:14:08.194Z,72.70
2018-07-08T03:16:36.137Z,72.70
2018-07-08T03:19:04.128Z,72.80
2018-07-08T03:21:32.139Z,72.90
2018-07-08T03:24:00.619Z,73.00
2018-07-08T03:26:28.697Z,73.10
2018-07-08T03:28:57.074Z,73.20
2018-07-08T03:31:25.009Z,75.60
2018-07-08T03:33:53.052Z,74.30
2018-07-08T03:36:21.006Z,73.50
2018-07-08T03:38:50.013Z,72.50
2018-07-08T03:41:17.947Z,73.20
2018-07-08T03:43:45.809Z,73.70
2018-07-08T03:46:13.587Z,74.80
2018-07-08T03:48:41.569Z,71.80
2018-07-08T03:51:09.566Z,71.60
2018-07-08T03:53:38.772Z,71.00
2018-07-08T03:56:07.247Z,71.50
2018-07-08T03:58:35.184Z,72.80
2018-07-08T04:01:03.288Z,71.80
2018-07-08T04:03:37.472Z,71.10
2018-07-08T04:06:05.852Z,72.00
2018-07-08T04:08:33.677Z,72.00
2018-07-08T04:11:02.526Z,70.00
2018-07-08T04:13:30.744Z,71.30
2018-07-08T04:16:00.108Z,70.10
2018-07-08T04:18:29.079Z,72.30
2018-07-08T04:20:58.089Z,70.90
2018-07-08T04:23:26.148Z,70.30
2018-07-08T04:25:54.142Z,68.40
2018-07-08T04:28:22.457Z,70.60
2018-07-08T04:30:50.484Z,69.20
2018-07-08T04:33:18.562Z,67.90
2018-07-08T04:35:46.559Z,69.30
2018-07-08T04:38:14.502Z,67.70
2018-07-08T04:40:42.467Z,67.80
2018-07-08T04:43:10.526Z,68.10
2018-07-08T04:45:38.842Z,68.50
2018-07-08T04:48:06.887Z,70.50
2018-07-08T04:50:34.913Z,69.30
2018-07-08T04:53:02.968Z,69.30
2018-07-08T04:55:31.134Z,69.00
2018-07-08T04:57:59.398Z,69.20
2018-07-08T05:00:27.575Z,69.50
2018-07-08T05:02:55.571Z,69.00
2018-07-08T05:05:23.441Z,69.20
2018-07-08T05:07:51.475Z,67.20
2018-07-08T05:10:19.531Z,67.30
2018-07-08T05:15:15.187Z,67.50
2018-07-08T05:17:43.061Z,67.50
2018-07-08T05:20:11.009Z,66.70
2018-07-08T05:22:38.969Z,66.60
2018-07-08T05:25:06.868Z,66.60
2018-07-08T05:27:34.959Z,66.70
2018-07-08T05:30:03.198Z,67.00
2018-07-08T05:32:31.237Z,66.80
2018-07-08T05:34:59.347Z,68.70
2018-07-08T05:37:27.335Z,67.70
2018-07-08T05:39:55.337Z,66.10
2018-07-08T05:42:23.133Z,65.70
2018-07-08T05:44:51.142Z,65.50
2018-07-08T05:47:18.991Z,66.40
2018-07-08T05:49:46.880Z,64.10
2018-07-08T05:52:14.810Z,64.50
2018-07-08T05:54:42.663Z,64.20
2018-07-08T05:57:10.732Z,66.10
2018-07-08T05:59:38.702Z,67.20
2018-07-08T06:02:06.846Z,63.50
2018-07-08T06:04:35.801Z,61.70
2018-07-08T06:07:03.812Z,61.20
2018-07-08T06:09:32.081Z,61.20
2018-07-08T06:12:00.139Z,60.30
2018-07-08T06:14:28.413Z,60.50
2018-07-08T06:16:56.712Z,60.50
2018-07-08T06:19:24.515Z,60.80
2018-07-08T06:21:52.517Z,59.80
2018-07-08T06:24:20.420Z,58.50
2018-07-08T06:26:48.393Z,57.60
2018-07-08T06:29:16.293Z,54.30
2018-07-08T06:31:44.205Z,51.30
2018-07-08T06:34:12.297Z,45.60
2018-07-08T06:36:40.277Z,44.50
2018-07-08T06:39:08.301Z,43.60
2018-07-08T06:41:36.295Z,42.60
2018-07-08T06:48:59.991Z,39.70
2018-07-08T06:51:28.242Z,39.40
2018-07-08T06:53:56.449Z,39.20
2018-07-08T06:56:24.525Z,37.60
2018-07-08T06:58:53.138Z,38.30
2018-07-08T07:01:21.047Z,37.80
2018-07-08T07:03:49.089Z,37.70
2018-07-08T07:06:17.261Z,38.50
2018-07-08T07:08:45.257Z,38.40
2018-07-08T07:11:13.353Z,37.50
2018-07-08T07:13:41.474Z,37.70
2018-07-08T07:16:09.490Z,37.30
2018-07-08T07:18:37.680Z,37.00
2018-07-08T07:21:06.067Z,37.40
2018-07-08T07:23:34.506Z,36.70
2018-07-08T07:26:02.627Z,36.00
2018-07-08T07:28:30.843Z,36.50
2018-07-08T07:30:59.282Z,37.60
2018-07-08T07:33:27.378Z,38.20
2018-07-08T07:35:56.021Z,37.70
2018-07-08T07:38:23.979Z,37.30
2018-07-08T07:40:51.936Z,37.00
2018-07-08T07:43:20.330Z,37.30
2018-07-08T07:45:48.550Z,38.00
2018-07-08T07:48:16.933Z,38.30
2018-07-08T07:50:44.987Z,38.10
2018-07-08T07:53:14.178Z,38.60
2018-07-08T07:55:42.457Z,38.50
2018-07-08T07:58:10.378Z,38.30
2018-07-08T08:00:38.523Z,38.80
2018-07-08T08:03:06.626Z,38.10
2018-07-08T08:05:34.931Z,38.30
2018-07-08T08:08:05.600Z,39.30
2018-07-08T08:10:35.142Z,40.20
2018-07-08T08:13:03.320Z,40.10
2018-07-08T08:15:32.875Z,41.00
2018-07-08T08:18:01.637Z,40.10
2018-07-08T08:20:31.023Z,40.60
2018-07-08T08:23:00.277Z,39.90
2018-07-08T08:25:28.915Z,39.50
2018-07-08T08:27:57.928Z,40.30
2018-07-08T08:30:26.193Z,39.70
2018-07-08T08:32:54.184Z,38.80
2018-07-08T08:35:22.281Z,39.10
2018-07-08T08:37:51.744Z,39.60
2018-07-08T08:42:48.584Z,39.70
2018-07-08T08:45:17.784Z,39.20
2018-07-08T08:47:45.811Z,39.00
2018-07-08T08:50:14.538Z,39.60
2018-07-08T08:52:42.584Z,39.80
2018-07-08T08:55:11.126Z,39.70
2018-07-08T08:57:39.070Z,38.50
2018-07-08T09:00:13.964Z,38.80
2018-07-08T09:02:41.939Z,38.70
2018-07-08T09:05:10.468Z,38.30
2018-07-08T09:07:38.533Z,38.80
2018-07-08T09:10:06.934Z,37.80
2018-07-08T09:12:35.007Z,37.10
2018-07-08T09:15:03.154Z,36.90
2018-07-08T09:17:31.607Z,36.70
2018-07-08T09:20:00.598Z,37.60
2018-07-08T09:22:29.142Z,37.90
2018-07-08T09:24:58.108Z,37.60
2018-07-08T09:27:27.039Z,37.60
2018-07-08T09:29:55.139Z,37.40
2018-07-08T09:32:23.274Z,39.40
2018-07-08T09:34:51.096Z,36.90
2018-07-08T09:37:19.015Z,36.80
2018-07-08T09:39:46.892Z,37.90
2018-07-08T09:42:14.779Z,37.00
2018-07-08T09:44:42.811Z,37.60
2018-07-08T09:47:10.650Z,36.90
2018-07-08T09:49:39.089Z,36.90
2018-07-08T09:52:07.176Z,36.60
2018-07-08T09:54:35.061Z,37.50
2018-07-08T09:57:03.104Z,36.90
2018-07-08T09:59:32.513Z,36.60
2018-07-08T10:02:01.094Z,36.40
2018-07-08T10:04:29.538Z,36.40
2018-07-08T10:06:58.106Z,37.00
2018-07-08T10:09:27.039Z,37.50
2018-07-08T10:11:56.225Z,37.30
2018-07-08T10:14:24.503Z,37.70
2018-07-08T10:16:53.110Z,37.80
2018-07-08T10:19:21.312Z,37.90
2018-07-08T10:21:49.280Z,38.90
2018-07-08T10:24:17.289Z,38.60
2018-07-08T10:26:50.045Z,38.40
2018-07-08T10:31:49.585Z,36.90
2018-07-08T10:34:18.854Z,37.40
2018-07-08T10:36:47.113Z,37.80
2018-07-08T10:39:15.780Z,37.80
2018-07-08T10:41:43.699Z,38.30
2018-07-08T10:44:11.985Z,37.60
2018-07-08T10:46:40.276Z,36.90
2018-07-08T10:49:08.725Z,37.50
2018-07-08T10:51:36.857Z,37.60
2018-07-08T10:54:04.943Z,39.00
2018-07-08T10:56:33.085Z,38.40
2018-07-08T10:59:01.371Z,38.90
2018-07-08T11:01:30.231Z,38.60
2018-07-08T11:03:59.036Z,39.10
2018-07-08T11:06:28.483Z,38.90
2018-07-08T11:08:57.041Z,39.50
2018-07-08T11:16:21.333Z,39.50
2018-07-08T11:18:49.334Z,38.60
2018-07-08T11:21:17.446Z,38.00
2018-07-08T11:23:45.446Z,38.10
2018-07-08T11:26:14.090Z,38.90
2018-07-08T11:28:42.167Z,39.60
2018-07-08T11:31:10.328Z,40.50
2018-07-08T11:33:38.322Z,41.10
2018-07-08T11:36:08.073Z,40.40
2018-07-08T11:38:36.849Z,40.00
2018-07-08T11:41:05.005Z,40.40
2018-07-08T11:43:33.119Z,40.50
2018-07-08T11:46:02.244Z,41.10
2018-07-08T11:48:30.494Z,40.00
2018-07-08T11:50:58.998Z,39.70
2018-07-08T11:53:28.559Z,39.30
2018-07-08T11:58:27.920Z,39.40
2018-07-08T12:00:56.413Z,39.70
2018-07-08T12:03:24.633Z,40.30
2018-07-08T12:05:52.652Z,41.30
2018-07-08T12:08:21.005Z,42.80
2018-07-08T12:10:48.944Z,42.20
2018-07-08T12:13:18.048Z,42.20
2018-07-08T12:15:46.879Z,41.70
2018-07-08T12:18:16.543Z,41.70
2018-07-08T12:20:45.698Z,40.60
2018-07-08T12:23:15.577Z,41.10
2018-07-08T12:25:45.407Z,41.50
2018-07-08T12:28:19.549Z,42.00
2018-07-08T12:30:50.005Z,42.30
2018-07-08T12:33:29.621Z,42.60
2018-07-08T12:36:00.229Z,42.60
2018-07-08T12:38:33.604Z,42.80
2018-07-08T12:41:03.619Z,42.90
2018-07-08T12:43:32.205Z,42.80
2018-07-08T12:46:01.088Z,43.10
2018-07-08T12:48:31.617Z,42.90
2018-07-08T12:51:01.256Z,42.00
2018-07-08T12:53:39.462Z,40.70
2018-07-08T12:56:07.808Z,41.30
2018-07-08T12:58:36.639Z,42.10
2018-07-08T13:01:07.535Z,42.80
2018-07-08T13:03:37.377Z,41.90
2018-07-08T13:06:06.809Z,41.60
2018-07-08T13:08:34.959Z,43.20
2018-07-08T13:11:02.977Z,44.40
2018-07-08T13:13:31.196Z,42.50
2018-07-08T13:15:59.558Z,42.60
2018-07-08T13:18:27.788Z,42.40
2018-07-08T13:20:57.022Z,42.50
2018-07-08T13:23:25.847Z,43.00
2018-07-08T13:25:53.873Z,43.00
2018-07-08T13:28:22.200Z,42.50
2018-07-08T13:30:50.872Z,42.30
2018-07-08T13:33:19.338Z,42.00
2018-07-08T13:35:49.781Z,41.80
2018-07-08T13:38:19.462Z,41.60
2018-07-08T13:40:49.237Z,42.20
2018-07-08T13:43:18.895Z,42.80
2018-07-08T13:45:47.035Z,43.50
2018-07-08T13:48:15.414Z,43.00
2018-07-08T13:51:00.490Z,42.30
2018-07-08T13:53:28.893Z,42.30
2018-07-08T13:56:08.974Z,43.30
2018-07-08T13:58:37.014Z,43.60
2018-07-08T14:01:05.079Z,43.10
2018-07-08T14:03:33.076Z,43.30
2018-07-08T14:06:01.216Z,43.30
2018-07-08T14:08:29.549Z,42.40
2018-07-08T14:10:57.585Z,41.90
2018-07-08T14:13:26.145Z,43.10
2018-07-08T14:15:54.188Z,44.30
2018-07-08T14:18:27.803Z,45.40
2018-07-08T14:20:55.996Z,45.90
2018-07-08T14:23:24.051Z,46.30
2018-07-08T14:25:51.980Z,45.80
2018-07-08T14:28:20.093Z,46.00
2018-07-08T14:30:47.953Z,45.70
2018-07-08T14:33:16.018Z,45.70
2018-07-08T14:35:43.988Z,44.80
2018-07-08T14:38:11.849Z,44.50
2018-07-08T14:40:39.953Z,44.20
2018-07-08T14:43:07.931Z,43.80
2018-07-08T14:45:36.374Z,43.50
2018-07-08T14:48:04.779Z,44.10
2018-07-08T14:50:33.019Z,44.40
2018-07-08T14:53:01.478Z,43.20
2018-07-08T14:55:29.876Z,43.40
2018-07-08T14:57:58.524Z,42.70
2018-07-08T15:00:27.123Z,42.10
2018-07-08T15:02:55.437Z,41.50
2018-07-08T15:05:23.544Z,42.10
2018-07-08T15:07:51.501Z,42.80
2018-07-08T15:10:19.740Z,42.40
2018-07-08T15:12:47.741Z,43.10
2018-07-08T15:15:15.718Z,42.30
2018-07-08T15:17:43.793Z,42.80
2018-07-08T15:20:11.772Z,42.40
2018-07-08T15:22:39.862Z,42.90
2018-07-08T15:25:08.031Z,43.40
2018-07-08T15:27:36.044Z,43.90
2018-07-08T15:30:06.399Z,44.10
2018-07-08T15:32:34.611Z,44.80
2018-07-08T15:35:03.455Z,45.00
2018-07-08T15:37:32.098Z,45.40
2018-07-08T15:40:00.364Z,45.70
2018-07-08T15:42:28.602Z,46.20
2018-07-08T15:44:56.778Z,46.50
2018-07-08T15:47:25.207Z,45.80
2018-07-08T15:49:53.258Z,45.40
2018-07-08T15:52:21.341Z,45.30
2018-07-08T15:54:49.414Z,46.30
2018-07-08T15:57:21.712Z,47.30
2018-07-08T15:59:49.845Z,47.60
2018-07-08T16:02:18.206Z,47.40
2018-07-08T16:04:47.649Z,47.70
2018-07-08T16:07:15.718Z,48.10
2018-07-08T16:09:44.032Z,48.00
2018-07-08T16:12:12.194Z,48.10
2018-07-08T16:14:41.830Z,48.20
2018-07-08T16:17:11.207Z,48.20
2018-07-08T16:19:39.319Z,47.70
2018-07-08T16:22:08.393Z,46.90
2018-07-08T16:24:39.915Z,46.20
2018-07-08T16:27:09.803Z,46.60
2018-07-08T16:29:43.360Z,45.80
2018-07-08T16:32:11.560Z,44.80
2018-07-08T16:34:51.015Z,44.30
2018-07-08T16:37:19.428Z,44.50
2018-07-08T16:39:47.583Z,45.50
2018-07-08T16:42:16.337Z,45.50
2018-07-08T16:44:44.857Z,46.10
2018-07-08T16:47:13.874Z,45.90
2018-07-08T16:49:41.907Z,46.30
2018-07-08T16:52:10.274Z,46.80
2018-07-08T16:54:40.832Z,47.00
2018-07-08T16:57:13.782Z,47.60
2018-07-08T16:59:41.898Z,47.20
2018-07-08T17:02:10.201Z,47.70
2018-07-08T17:04:38.489Z,47.70
2018-07-08T17:07:06.835Z,47.60
2018-07-08T17:09:35.015Z,47.60
2018-07-08T17:12:09.563Z,47.60
2018-07-08T17:14:37.526Z,48.60
2018-07-08T17:17:05.625Z,47.30
2018-07-08T17:19:33.727Z,48.10
2018-07-08T17:22:02.884Z,47.50
2018-07-08T17:24:32.942Z,48.00
2018-07-08T17:27:01.498Z,48.00
2018-07-08T17:29:32.443Z,48.20
2018-07-08T17:32:02.071Z,48.20
2018-07-08T17:34:30.600Z,47.60
2018-07-08T17:36:59.452Z,47.70
2018-07-08T17:39:29.490Z,48.40
2018-07-08T17:41:59.639Z,47.30
2018-07-08T17:44:29.994Z,47.70
2018-07-08T17:47:00.951Z,47.70
2018-07-08T17:49:30.115Z,47.90
2018-07-08T17:52:01.159Z,47.90
2018-07-08T17:54:35.305Z,48.00
2018-07-08T17:57:03.744Z,48.40
2018-07-08T17:59:33.041Z,49.30
2018-07-08T18:02:02.596Z,48.50
2018-07-08T18:04:31.459Z,48.50
2018-07-08T18:07:00.423Z,48.60
2018-07-08T18:09:30.223Z,48.50
2018-07-08T18:11:59.345Z,48.60
2018-07-08T18:14:27.956Z,48.90
2018-07-08T18:16:57.360Z,49.30
2018-07-08T18:19:26.976Z,49.60
2018-07-08T18:21:58.061Z,49.10
2018-07-08T18:24:27.625Z,49.30
2018-07-08T18:26:56.255Z,49.60
2018-07-08T18:29:24.353Z,49.70
2018-07-08T18:31:52.396Z,49.90
2018-07-08T18:34:20.382Z,50.50
2018-07-08T18:36:49.271Z,50.40
2018-07-08T18:39:17.310Z,50.80
2018-07-08T18:41:45.435Z,51.10
2018-07-08T18:44:16.332Z,51.30
2018-07-08T18:46:44.345Z,51.60
2018-07-08T18:49:12.350Z,51.80
2018-07-08T18:51:40.400Z,52.30
2018-07-08T18:54:08.329Z,52.70
2018-07-08T18:56:36.387Z,52.90
2018-07-08T18:59:04.705Z,53.20
2018-07-08T19:01:33.697Z,53.40
2018-07-08T19:04:03.695Z,53.90
2018-07-08T19:06:32.090Z,54.10
2018-07-08T19:09:00.775Z,54.40
2018-07-08T19:11:30.017Z,54.70
2018-07-08T19:13:58.363Z,54.80
2018-07-08T19:16:27.018Z,55.20
2018-07-08T19:18:54.867Z,55.30
2018-07-08T19:21:22.873Z,55.60
2018-07-08T19:23:50.876Z,55.80
2018-07-08T19:26:18.846Z,56.00
2018-07-08T19:28:46.763Z,56.20
2018-07-08T19:31:14.869Z,56.40
2018-07-08T19:33:42.888Z,56.40
2018-07-08T19:36:11.100Z,56.80
2018-07-08T19:38:39.259Z,57.00
2018-07-08T19:41:07.268Z,57.20
2018-07-08T19:43:35.348Z,57.50
2018-07-08T19:46:03.605Z,57.70
2018-07-08T19:48:31.984Z,57.80
2018-07-08T19:51:01.187Z,58.60
2018-07-08T19:53:29.477Z,57.60
2018-07-08T19:55:59.883Z,58.40
2018-07-08T19:58:28.464Z,58.40
2018-07-08T20:00:57.919Z,58.40
2018-07-08T20:03:26.608Z,58.70
2018-07-08T20:05:54.875Z,58.70
2018-07-08T20:08:23.081Z,58.80
2018-07-08T20:10:51.202Z,59.00
2018-07-08T20:13:19.151Z,59.10
2018-07-08T20:15:47.381Z,59.50
2018-07-08T20:18:15.459Z,60.20
2018-07-08T20:20:43.504Z,60.80
2018-07-08T20:23:11.640Z,61.10
2018-07-08T20:25:39.679Z,61.10
2018-07-08T20:28:07.938Z,61.30
2018-07-08T20:30:36.023Z,61.80
2018-07-08T20:33:04.258Z,61.90
2018-07-08T20:35:33.969Z,62.00
2018-07-08T20:38:02.562Z,62.20
2018-07-08T20:40:31.455Z,62.30
2018-07-08T20:42:59.607Z,62.50
2018-07-08T20:45:28.023Z,62.60
2018-07-08T20:47:56.173Z,62.50
2018-07-08T20:50:24.289Z,62.70
2018-07-08T20:52:52.333Z,63.10
2018-07-08T20:55:20.636Z,63.30
2018-07-08T20:57:48.740Z,63.40
2018-07-08T21:00:16.845Z,63.40
2018-07-08T21:02:44.897Z,63.90
2018-07-08T21:05:12.872Z,64.40
2018-07-08T21:07:41.230Z,65.00
2018-07-08T21:10:09.307Z,65.20
2018-07-08T21:12:38.353Z,65.60
2018-07-08T21:15:06.275Z,65.90
2018-07-08T21:17:34.761Z,66.30
2018-07-08T21:20:02.815Z,66.70
2018-07-08T21:22:32.135Z,66.50
2018-07-08T21:25:01.183Z,66.40
2018-07-08T21:27:29.436Z,66.40
2018-07-08T21:29:58.186Z,66.40
2018-07-08T21:32:30.049Z,65.90
2018-07-08T21:34:58.717Z,66.00
2018-07-08T21:37:28.456Z,65.90
2018-07-08T21:39:58.269Z,66.20
2018-07-08T21:42:26.979Z,66.60
2018-07-08T21:44:55.036Z,66.60
2018-07-08T21:47:23.052Z,66.90
2018-07-08T21:49:51.143Z,67.10
2018-07-08T21:52:19.313Z,67.10
2018-07-08T21:54:47.340Z,67.00
2018-07-08T21:57:15.433Z,67.20
2018-07-08T21:59:43.521Z,67.30
2018-07-08T22:02:18.411Z,67.50
2018-07-08T22:04:46.595Z,67.40
2018-07-08T22:07:20.642Z,67.80
2018-07-08T22:09:48.601Z,68.40
2018-07-08T22:12:16.939Z,68.90
2018-07-08T22:14:45.169Z,68.90
2018-07-08T22:17:13.150Z,69.00
2018-07-08T22:19:41.274Z,69.40
2018-07-08T22:22:09.315Z,68.60
2018-07-08T22:24:37.367Z,68.50
2018-07-08T22:27:05.550Z,68.60
2018-07-08T22:29:36.771Z,69.30
2018-07-08T22:32:05.197Z,68.50
2018-07-08T22:34:33.350Z,68.60
2018-07-08T22:37:01.561Z,68.70
2018-07-08T22:39:29.689Z,68.90
2018-07-08T22:41:57.906Z,68.50
2018-07-08T22:44:26.090Z,68.60
2018-07-08T22:46:54.109Z,68.90
2018-07-08T22:49:22.308Z,70.30
2018-07-08T22:51:50.602Z,69.60
2018-07-08T22:54:18.552Z,69.70
2018-07-08T22:56:46.552Z,69.80
2018-07-08T22:59:14.570Z,70.40
2018-07-08T23:01:53.885Z,70.40
2018-07-08T23:04:21.837Z,71.40
2018-07-08T23:06:49.843Z,70.70
2018-07-08T23:09:17.742Z,70.80
2018-07-08T23:11:45.515Z,71.60
2018-07-08T23:14:13.508Z,71.40
2018-07-08T23:16:41.457Z,72.30
2018-07-08T23:19:09.384Z,71.30
2018-07-08T23:24:05.335Z,71.40
2018-07-08T23:26:33.638Z,71.70
2018-07-08T23:29:02.168Z,72.20
2018-07-08T23:31:30.375Z,73.00
2018-07-08T23:33:58.892Z,72.80
2018-07-08T23:36:27.721Z,72.70
2018-07-08T23:38:55.627Z,72.70
2018-07-08T23:41:23.637Z,72.30
2018-07-08T23:43:51.649Z,73.10
2018-07-08T23:46:19.713Z,73.50
2018-07-08T23:48:47.535Z,74.30
2018-07-08T23:51:16.438Z,74.90
2018-07-08T23:53:44.365Z,75.50
2018-07-08T23:56:12.371Z,75.80
2018-07-08T23:58:40.301Z,75.90
